• Join FlightAware (Why Join?)
  • Login
  • US Flag 
08:43PM EDT


 

Airport Tracker/Info


-or-


 

Live Flight TrackerFlight Track Log ✈ N498QS ✈ 30-Nov-2012 ✈ CYVR - KDFW

Flight Track Log - Related Links

Times and Time Zones

All times are in EST time to prevent confusion due to time zone crossing. See the N498QS flight status page for this flight to view local times or setup timezone preferences in your user account.

Time Position Orientation Groundspeed Altitude Reporting Facility
EST Latitude Longitude Course Direction KTS MPH feet Rate Location/Type
01:47PM 49.1667 -123.1333 121° Southeast 180 207 2,600  Level Vancouver Center
01:48PM 49.1500 -123.0333 104° East 240 276 5,500 3,180 Climbing Vancouver Center
01:49PM 49.1167 -122.9500 121° Southeast 270 311 9,000 3,600 Climbing Vancouver Center
01:50PM 49.0667 -122.8333 123° Southeast 290 334 12,800 3,540 Climbing Vancouver Center
01:51PM 49.0333 -122.7333 117° Southeast 310 357 16,100 3,000 Climbing Vancouver Center
01:52PM 49.1589 -123.1056 125° Southeast  Level FlightAware Approximate
01:53PM 49.0889 -122.9557 121° Southeast  Level FlightAware Approximate
01:53PM 48.9678 -122.5328 116° Southeast 337 388 20,800  Level Seattle Center
01:53PM 48.9333 -122.4833 137° Southeast 360 414 21,800 2,400 Climbing Vancouver Center
01:54PM 48.8667 -122.3333 124° Southeast 390 449 24,100 2,220 Climbing Vancouver Center
01:55PM 48.8167 -122.1833 117° Southeast 410 472 26,300 2,160 Climbing Vancouver Center
01:56PM 48.7500 -122.0333 124° Southeast 430 495 28,500 1,800 Climbing Vancouver Center
01:57PM 48.6833 -121.8500 119° Southeast 450 518 29,900 1,620 Climbing Vancouver Center
01:58PM 48.6619 -121.7711 112° Southeast 472 543 31,300 2,040 Climbing Seattle Center
01:59PM 48.5933 -121.6017 121° Southeast 474 545 33,500 2,400 Climbing Seattle Center
02:00PM 48.5169 -121.4050 120° Southeast 461 531 36,200 2,340 Climbing Seattle Center
02:01PM 48.4519 -121.2439 121° Southeast 455 524 38,300 1,380 Climbing Seattle Center
02:02PM 48.3878 -121.0842 121° Southeast 451 519 39,100 780 Climbing Seattle Center
02:03PM 48.3225 -120.9225 121° Southeast 454 522 40,000 780 Climbing Seattle Center
02:04PM 48.2608 -120.7772 122° Southeast 459 528 40,800 480 Climbing Seattle Center
02:05PM 48.1914 -120.6114 122° Southeast 467 537 41,000 60 Climbing Seattle Center
02:06PM 48.0950 -120.4250 128° Southeast 472 543 41,000  Level Seattle Center
02:07PM 48.0014 -120.2942 137° Southeast 462 532 41,000  Level Seattle Center
02:08PM 47.9072 -120.1661 138° Southeast 460 529 41,000  Level Seattle Center
02:09PM 47.8131 -120.0386 138° Southeast 460 529 41,000  Level Seattle Center
02:10PM 47.7183 -119.9100 138° Southeast 461 531 41,000  Level Seattle Center
02:11PM 47.6233 -119.7822 138° Southeast 462 532 41,000  Level Seattle Center
02:12PM 47.5289 -119.6544 138° Southeast 462 532 41,000  Level Seattle Center
02:13PM 47.4344 -119.5286 138° Southeast 462 532 41,000  Level Seattle Center
02:14PM 47.3394 -119.4011 138° Southeast 462 532 41,000  Level Seattle Center
02:15PM 47.2422 -119.2742 138° Southeast 468 539 41,000  Level Seattle Center
02:16PM 47.1461 -119.1469 138° Southeast 467 537 41,000  Level Seattle Center
02:17PM 47.0481 -119.0200 139° Southeast 470 541 41,000  Level Seattle Center
02:18PM 46.9511 -118.8936 138° Southeast 469 540 41,000  Level Seattle Center
02:19PM 46.8369 -118.7456 138° Southeast 463 533 41,000  Level Seattle Center
02:20PM 46.7419 -118.6242 139° Southeast 458 527 41,000  Level Seattle Center
02:21PM 46.6481 -118.5047 139° Southeast 453 521 41,000  Level Seattle Center
02:22PM 46.5533 -118.3839 139° Southeast 454 522 41,000  Level Seattle Center
02:23PM 46.4578 -118.2631 139° Southeast 457 526 41,000  Level Seattle Center
02:24PM 46.3622 -118.1433 139° Southeast 457 526 41,000  Level Seattle Center
02:25PM 46.2667 -118.0233 139° Southeast 457 526 41,000  Level Seattle Center
02:26PM 46.1700 -117.9014 139° Southeast 461 531 41,000  Level Seattle Center
02:27PM 46.0728 -117.7817 139° Southeast 462 532 41,000  Level Seattle Center
02:28PM 45.9764 -117.6622 139° Southeast 460 529 41,000  Level Seattle Center
02:29PM 45.8803 -117.5439 139° Southeast 458 527 41,000  Level Seattle Center
02:30PM 45.7844 -117.4250 139° Southeast 457 526 41,000  Level Seattle Center
02:31PM 45.6683 -117.2839 140° Southeast 457 526 41,000  Level Seattle Center
02:32PM 45.5822 -117.1800 140° Southeast 457 526 41,000  Level Seattle Center
02:33PM 45.4742 -117.0486 140° Southeast 457 526 41,000  Level Seattle Center
02:34PM 45.3792 -116.9358 140° Southeast 461 531 41,000  Level Seattle Center
02:35PM 45.2853 -116.8219 140° Southeast 462 532 41,000  Level Seattle Center
02:36PM 45.1744 -116.6897 140° Southeast 465 535 41,000  Level Seattle Center
02:37PM 45.0789 -116.5764 140° Southeast 466 536 41,000  Level Seattle Center
02:38PM 44.9844 -116.4642 140° Southeast 465 535 41,000  Level Seattle Center
02:39PM 44.8792 -116.3161 135° Southeast 481 554 41,000  Level Seattle Center
02:39PM 44.8667 -116.2931 127° Southeast 479 551 41,000  Level Salt Lake Center
02:41PM 44.7817 -116.1089 123° Southeast 496 571 41,000  Level Salt Lake Center
02:42PM 44.7075 -115.9517 124° Southeast 498 573 41,000  Level Salt Lake Center
02:43PM 44.6322 -115.7950 124° Southeast 499 574 41,000  Level Salt Lake Center
02:44PM 44.5453 -115.6111 124° Southeast 502 578 41,000  Level Salt Lake Center
02:45PM 44.4711 -115.4567 124° Southeast 499 574 41,000  Level Salt Lake Center
02:46PM 44.3853 -115.2792 124° Southeast 494 568 41,000  Level Salt Lake Center
02:47PM 44.3108 -115.1267 124° Southeast 494 568 41,000  Level Salt Lake Center
02:48PM 44.2361 -114.9731 124° Southeast 497 572 41,000  Level Salt Lake Center
02:49PM 44.1483 -114.7933 124° Southeast 500 575 41,000  Level Salt Lake Center
02:50PM 44.0725 -114.6408 125° Southeast 501 577 41,000  Level Salt Lake Center
02:51PM 43.9825 -114.4664 126° Southeast 498 573 41,000  Level Salt Lake Center
02:52PM 43.9078 -114.3153 124° Southeast 497 572 41,000  Level Salt Lake Center
02:53PM 43.8322 -114.1631 124° Southeast 499 574 41,000  Level Salt Lake Center
02:54PM 43.7428 -113.9850 125° Southeast 502 578 41,000  Level Salt Lake Center
02:55PM 43.6619 -113.8261 125° Southeast 506 582 41,000  Level Salt Lake Center
02:56PM 43.5825 -113.6722 125° Southeast 512 589 41,000  Level Salt Lake Center
02:57PM 43.4908 -113.4944 125° Southeast 511 588 41,000  Level Salt Lake Center
02:58PM 43.4131 -113.3450 126° Southeast 506 582 41,000  Level Salt Lake Center
02:59PM 43.3233 -113.1733 126° Southeast 499 574 41,000  Level Salt Lake Center
03:00PM 43.2467 -113.0250 125° Southeast 498 573 41,000  Level Salt Lake Center
03:01PM 43.1553 -112.8519 126° Southeast 501 577 41,000  Level Salt Lake Center
03:02PM 43.0758 -112.7022 126° Southeast 506 582 41,000  Level Salt Lake Center
03:03PM 42.9950 -112.5514 126° Southeast 511 588 41,000  Level Salt Lake Center
03:04PM 42.9008 -112.3747 126° Southeast 515 593 41,000  Level Salt Lake Center
03:05PM 42.8197 -112.2244 126° Southeast 515 593 41,000  Level Salt Lake Center
03:06PM 42.7244 -112.0478 126° Southeast 518 596 41,000  Level Salt Lake Center
03:07PM 42.6458 -111.9061 127° Southeast 516 594 41,000  Level Salt Lake Center
03:08PM 42.5625 -111.7519 126° Southeast 510 587 41,000  Level Salt Lake Center
03:09PM 42.4786 -111.6003 127° Southeast 505 581 41,000  Level Salt Lake Center
03:10PM 42.3794 -111.4214 127° Southeast 498 573 41,000  Level Salt Lake Center
03:11PM 42.2964 -111.2731 127° Southeast 496 571 41,000  Level Salt Lake Center
03:12PM 42.2125 -111.1222 127° Southeast 499 574 41,000 240 Level Salt Lake Center
03:13PM 42.1278 -110.9717 127° Southeast 502 578 41,600 540 Climbing Salt Lake Center
03:14PM 42.0469 -110.8267 127° Southeast 504 580 42,200 660 Climbing Salt Lake Center
03:15PM 41.9514 -110.6594 128° Southeast 506 582 43,000 360 Climbing Salt Lake Center
03:16PM 41.8700 -110.5169 127° Southeast 504 580 43,000  Level Salt Lake Center
03:17PM 41.7750 -110.3511 127° Southeast 504 580 43,000  Level Salt Lake Center
03:18PM 41.6933 -110.2086 127° Southeast 504 580 43,000  Level Salt Lake Center
03:20PM 41.5983 -110.0456 128° Southeast 501 577 43,000  Level Salt Lake Center
03:21PM 41.5167 -109.9039 128° Southeast 503 579 43,000  Level Salt Lake Center
03:22PM 41.4200 -109.7386 128° Southeast 507 583 43,000  Level Salt Lake Center
03:23PM 41.3369 -109.5981 128° Southeast 508 585 43,000  Level Salt Lake Center
03:24PM 41.2667 -109.4439 121° Southeast 517 595 43,000  Level Salt Lake Center
03:25PM 41.1903 -109.2614 119° Southeast 512 589 43,000  Level Salt Lake Center
03:26PM 41.1239 -109.1044 119° Southeast 515 593 43,000  Level Salt Lake Center
03:27PM 41.0469 -108.9214 119° Southeast 514 592 43,000  Level Salt Lake Center
03:28PM 40.9817 -108.7653 119° Southeast 512 589 43,000  Level Salt Lake Center
03:29PM 40.9042 -108.5792 119° Southeast 515 593 43,000  Level Salt Lake Center
03:30PM 40.8367 -108.4231 120° Southeast 515 593 43,000  Level Salt Lake Center
03:31PM 40.7483 -108.2147 119° Southeast 508 585 43,000  Level Denver Center
03:32PM 40.6619 -108.0797 130° Southeast 492 566 43,000  Level Denver Center
03:33PM 40.5617 -107.9261 131° Southeast 493 567 43,000  Level Denver Center
03:34PM 40.4756 -107.7964 131° Southeast 491 565 43,000  Level Denver Center
03:35PM 40.3889 -107.6647 131° Southeast 494 568 43,000  Level Denver Center
03:36PM 40.2867 -107.5092 131° Southeast 501 577 43,000  Level Denver Center
03:37PM 40.1983 -107.3756 131° Southeast 504 580 43,000  Level Denver Center
03:38PM 40.0939 -107.2200 131° Southeast 507 583 43,000  Level Denver Center
03:39PM 40.0053 -107.0889 131° Southeast 504 580 43,000  Level Denver Center
03:40PM 39.9100 -106.9469 131° Southeast 503 579 43,000  Level Denver Center
03:41PM 39.8164 -106.8086 131° Southeast 503 579 43,000  Level Denver Center
03:42PM 39.7236 -106.6703 131° Southeast 503 579 43,000  Level Denver Center
03:43PM 39.6211 -106.5219 132° Southeast 503 579 43,000  Level Denver Center
03:44PM 39.5364 -106.3975 131° Southeast 498 573 43,000  Level Denver Center
03:45PM 39.4442 -106.2622 131° Southeast 497 572 43,000  Level Denver Center
03:46PM 39.3406 -106.1133 132° Southeast 496 571 43,000  Level Denver Center
03:47PM 39.2483 -105.9808 132° Southeast 494 568 43,000  Level Denver Center
03:49PM 39.1556 -105.8486 132° Southeast 495 570 43,000  Level Denver Center
03:50PM 39.0486 -105.6950 132° Southeast 491 565 43,000  Level Denver Center
03:51PM 38.9583 -105.5656 132° Southeast 487 560 43,000  Level Denver Center
03:52PM 38.8681 -105.4383 132° Southeast 482 555 43,000  Level Denver Center
03:53PM 38.7769 -105.3100 132° Southeast 484 557 43,000  Level Denver Center
03:54PM 38.6853 -105.1800 132° Southeast 488 562 43,000  Level Denver Center
03:55PM 38.5917 -105.0503 133° Southeast 492 566 43,000  Level Denver Center
03:56PM 38.4986 -104.9192 132° Southeast 494 568 43,000  Level Denver Center
03:57PM 38.3897 -104.7664 132° Southeast 495 570 43,000  Level Denver Center
03:58PM 38.3031 -104.6483 133° Southeast 496 571 43,000  Level Denver Center
03:59PM 38.1972 -104.5025 133° Southeast 500 575 43,000  Level Denver Center
04:00PM 38.1056 -104.3783 133° Southeast 502 578 43,000  Level Denver Center
04:01PM 37.9975 -104.2322 133° Southeast 505 581 43,000  Level Denver Center
04:02PM 37.9050 -104.1064 133° Southeast 507 583 43,000  Level Denver Center
04:03PM 37.8117 -103.9800 133° Southeast 508 585 43,000  Level Denver Center
04:04PM 37.7036 -103.8336 133° Southeast 503 579 43,000  Level Denver Center
04:05PM 37.6100 -103.7081 133° Southeast 505 581 43,000  Level Denver Center
04:06PM 37.5022 -103.5644 133° Southeast 501 577 43,000  Level Denver Center
04:07PM 37.4097 -103.4414 133° Southeast 503 579 43,000  Level Denver Center
04:08PM 37.3333 -103.3403 134° Southeast 501 577 43,000  Level Albuquerque Center
04:09PM 37.2414 -103.2181 133° Southeast 501 577 43,000  Level Albuquerque Center
04:10PM 37.1314 -103.0761 134° Southeast 505 581 43,000  Level Albuquerque Center
04:11PM 37.0389 -102.9536 133° Southeast 506 582 43,000  Level Albuquerque Center
04:12PM 36.9306 -102.8114 134° Southeast 505 581 43,000  Level Albuquerque Center
04:13PM 36.8375 -102.6917 134° Southeast 503 579 43,000  Level Albuquerque Center
04:14PM 36.7297 -102.5522 134° Southeast 500 575 43,000  Level Albuquerque Center
04:15PM 36.6428 -102.4400 134° Southeast 499 574 43,000  Level Albuquerque Center
04:16PM 36.5467 -102.3158 134° Southeast 498 573 43,000  Level Albuquerque Center
04:17PM 36.4511 -102.1933 134° Southeast 495 570 43,000  Level Albuquerque Center
04:18PM 36.3344 -102.0453 134° Southeast 497 572 43,000  Level Albuquerque Center
04:19PM 36.2367 -101.9222 135° Southeast 499 574 43,000  Level Albuquerque Center
04:20PM 36.1389 -101.7986 134° Southeast 500 575 43,000  Level Albuquerque Center
04:21PM 36.0414 -101.6731 134° Southeast 502 578 43,000  Level Albuquerque Center
04:22PM 35.9569 -101.5319 126° Southeast 502 578 43,000  Level Albuquerque Center
04:23PM 35.8708 -101.3933 127° Southeast 505 581 43,000  Level Albuquerque Center
04:24PM 35.7842 -101.2553 128° Southeast 505 581 43,000  Level Albuquerque Center
04:25PM 35.6819 -101.0908 127° Southeast 502 578 43,000  Level Albuquerque Center
04:26PM 35.5967 -100.9547 128° Southeast 501 577 43,000  Level Albuquerque Center
04:27PM 35.5111 -100.8181 128° Southeast 501 577 43,000  Level Albuquerque Center
04:29PM 35.4253 -100.6825 128° Southeast 501 577 43,000  Level Albuquerque Center
04:30PM 35.3333 -100.5383 128° Southeast 501 577 43,000  Level Albuquerque Center
04:31PM 35.2472 -100.4019 128° Southeast 503 579 43,000  Level Albuquerque Center
04:32PM 35.1600 -100.2669 128° Southeast 505 581 43,000  Level Albuquerque Center
04:33PM 35.0728 -100.1311 128° Southeast 508 585 43,000  Level Albuquerque Center
04:34PM 34.9861 -99.9953 128° Southeast 508 585 43,000  Level Albuquerque Center
04:35PM 34.8819 -99.8353 128° Southeast 504 580 43,000  Level Albuquerque Center
04:35PM 34.8233 -99.7481 129° Southeast 505 581 43,000 -840 Level Fort Worth Center
04:36PM 34.7361 -99.6119 128° Southeast 505 581 41,600 -1,740 Descending Fort Worth Center
04:37PM 34.6464 -99.4808 130° Southeast 505 581 39,600 -2,040 Descending Fort Worth Center
04:38PM 34.5611 -99.3450 127° Southeast 505 581 37,600 -2,040 Descending Fort Worth Center
04:39PM 34.4753 -99.2147 129° Southeast 505 581 35,600 -2,040 Descending Fort Worth Center
04:40PM 34.3875 -99.0819 129° Southeast 505 581 33,600 -2,040 Descending Fort Worth Center
04:41PM 34.2994 -98.9469 128° Southeast 505 581 31,600 -2,100 Descending Fort Worth Center
04:42PM 34.2092 -98.8147 130° Southeast 505 581 29,500 -2,040 Descending Fort Worth Center
04:43PM 34.1250 -98.6881 129° Southeast 505 581 27,600 -1,260 Descending Fort Worth Center
04:44PM 34.0469 -98.5792 131° Southeast 495 570 27,000 -600 Descending Fort Worth Center
04:45PM 33.9561 -98.4653 134° Southeast 480 552 26,400 -540 Descending Fort Worth Center
04:46PM 33.8269 -98.4311 168° South 457 526 26,000 -660 Descending Fort Worth Center
04:47PM 33.6997 -98.4022 169° South 462 532 25,100 -1,020 Descending Fort Worth Center
04:48PM 33.5961 -98.3086 143° Southeast 456 525 24,000 -1,500 Descending Fort Worth Center
04:49PM 33.5408 -98.1586 114° Southeast 431 496 22,100 -2,580 Descending Fort Worth Center
04:50PM 33.4997 -98.0211 110° East 431 496 18,900 -3,000 Descending Fort Worth Center
04:51PM 33.4911 -97.9761 103° East 434 499 18,000 -2,460 Descending FAA TRACON SMA TRACON (SMA)
04:51PM 33.4783 -97.9350 110° East 431 496 17,200 -2,880 Descending FAA TRACON SMA TRACON (SMA)
04:51PM 33.4625 -97.8847 111° Southeast 424 488 16,100 -2,760 Descending FAA TRACON SMA TRACON (SMA)
04:52PM 33.4492 -97.8461 112° Southeast 413 475 15,300 -2,820 Descending FAA TRACON SMA TRACON (SMA)
04:52PM 33.4347 -97.7972 109° East 405 466 14,200 -2,940 Descending FAA TRACON SMA TRACON (SMA)
04:52PM 33.4219 -97.7603 112° Southeast 398 458 13,400 -2,160 Descending FAA TRACON SMA TRACON (SMA)
04:53PM 33.4111 -97.7233 109° East 388 447 12,700 -2,460 Descending FAA TRACON SMA TRACON (SMA)
04:53PM 33.3953 -97.6808 114° Southeast 371 427 11,700 -2,700 Descending FAA TRACON SMA TRACON (SMA)
04:53PM 33.3814 -97.6492 118° Southeast 355 409 11,000 -1,620 Descending FAA TRACON SMA TRACON (SMA)
04:54PM 33.3639 -97.6222 128° Southeast 337 388 10,700 -1,200 Descending FAA TRACON SMA TRACON (SMA)
04:54PM 33.3461 -97.5975 131° Southeast 323 372 10,200 -1,680 Descending FAA TRACON SMA TRACON (SMA)
04:54PM 33.3225 -97.5697 135° Southeast 310 357 9,600 -1,680 Descending FAA TRACON SMA TRACON (SMA)
04:55PM 33.3050 -97.5469 133° Southeast 303 349 9,100 -1,500 Descending FAA TRACON SMA TRACON (SMA)
04:55PM 33.2892 -97.5231 128° Southeast 299 344 8,600 -1,800 Descending FAA TRACON SMA TRACON (SMA)
04:55PM 33.2742 -97.4894 118° Southeast 298 343 7,900 -1,680 Descending FAA TRACON SMA TRACON (SMA)
04:56PM 33.2656 -97.4614 110° East 296 341 7,500 -1,500 Descending FAA TRACON SMA TRACON (SMA)
04:56PM 33.2569 -97.4336 110° East 291 335 6,900 -1,980 Descending FAA TRACON SMA TRACON (SMA)
04:56PM 33.2472 -97.3989 109° East 287 330 6,200 -1,800 Descending FAA TRACON SMA TRACON (SMA)
04:57PM 33.2392 -97.3714 109° East 286 329 5,700 -1,500 Descending FAA TRACON SMA TRACON (SMA)
04:57PM 33.2308 -97.3442 110° East 284 327 5,200 -1,200 Descending FAA TRACON SMA TRACON (SMA)
04:57PM 33.2211 -97.3108 109° East 279 321 4,900 -480 Descending FAA TRACON SMA TRACON (SMA)
04:58PM 33.2133 -97.2844 109° East 274 315 4,900  Level FAA TRACON SMA TRACON (SMA)
04:58PM 33.2056 -97.2581 109° East 274 315 4,900  Level FAA TRACON SMA TRACON (SMA)
04:58PM 33.1961 -97.2258 109° East 271 312 4,900  Level FAA TRACON SMA TRACON (SMA)
04:59PM 33.1883 -97.1997 110° East 270 311 4,900  Level FAA TRACON SMA TRACON (SMA)
04:59PM 33.1811 -97.1753 109° East 261 300 4,900 -480 Level FAA TRACON SMA TRACON (SMA)
04:59PM 33.1725 -97.1464 110° East 245 282 4,600 -1,020 Descending FAA TRACON SMA TRACON (SMA)
05:00PM 33.1592 -97.1006 109° East 237 273 3,900 -1,140 Descending FAA TRACON SMA TRACON (SMA)
05:00PM 33.1481 -97.0758 118° Southeast 229 264 3,500 -1,080 Descending FAA TRACON SMA TRACON (SMA)
05:01PM 33.1333 -97.0639 146° Southeast 216 249 3,200 -600 Descending FAA TRACON SMA TRACON (SMA)
05:01PM 33.1181 -97.0558 156° South 200 230 3,100 -480 Descending FAA TRACON SMA TRACON (SMA)
05:01PM 33.1003 -97.0556 179° South 174 200 2,900 -300 Descending FAA TRACON SMA TRACON (SMA)
05:02PM 33.0867 -97.0547 177° South 159 183 2,900  Level FAA TRACON SMA TRACON (SMA)
05:02PM 33.0722 -97.0547 180° South 163 188 2,900  Level FAA TRACON SMA TRACON (SMA)
05:02PM 33.0581 -97.0547 180° South 165 190 2,900  Level FAA TRACON SMA TRACON (SMA)
05:03PM 33.0417 -97.0547 180° South 156 180 2,900 -300 Level FAA TRACON SMA TRACON (SMA)
05:03PM 33.0281 -97.0547 180° South 156 180 2,700 -780 Descending FAA TRACON SMA TRACON (SMA)
05:03PM 33.0142 -97.0547 180° South 160 184 2,400 -960 Descending FAA TRACON SMA TRACON (SMA)
05:04PM 32.9992 -97.0547 180° South 144 166 2,100 -780 Descending FAA TRACON SMA TRACON (SMA)
05:04PM 32.9881 -97.0547 180° South 129 148 1,900 -600 Descending FAA TRACON SMA TRACON (SMA)
05:04PM 32.9742 -97.0547 180° South 129 148 1,700 -600 Descending FAA TRACON SMA TRACON (SMA)
05:05PM 32.9631 -97.0547 180° South 128 147 1,500 -600 Descending FAA TRACON SMA TRACON (SMA)
05:05PM 32.9514 -97.0547 180° South 132 152 1,300 -780 Descending FAA TRACON SMA TRACON (SMA)
05:05PM 32.9378 -97.0550 181° South 130 150 1,000 -780 Descending FAA TRACON SMA TRACON (SMA)
05:06PM 32.9272 -97.0553 181° South 123 142 800 -480 Descending FAA TRACON SMA TRACON (SMA)
05:06PM 32.9194 -97.0553 180° South 123 142 700 -300 Descending FAA TRACON SMA TRACON (SMA)
05:08PM 32.8968 -97.0380 176° South  Level Estimated
05:15PM 32.8968 -97.0380 176° South  Level Estimated